UAE224 NZWN-NFFN
Flight info
| Callsign | UAE224 |
|---|---|
| Flight time | N/A |
| Altitude | 41000 |
| Route | RUSIL Y127 OPABI Q277 AA A578 KALAG/N0486F430 A578 AGTAG |
| Aircraft | A359/H-SDE2E3GHIJ3J4J5LM1ORWXY/LB1D1 |
Departure
| Time | 2026-05-06 01:12 |
|---|---|
| Airport | Wellington International Airport (NZWN) |
Arrival
| Time | N/A |
|---|---|
| Airport | Nadi International Airport (NFFN) |
| Time | Latitude | Longitude | Altitude | Speed | Heading |
|---|---|---|---|---|---|
| 2026-05-06 00:56 | -41.32845 | 174.80975 | 33 ft | 0 kts | 66° |
| 2026-05-06 01:04 | -41.32850 | 174.80961 | 32 ft | 4 kts | 62° |
| 2026-05-06 01:04 | -41.32859 | 174.80931 | 29 ft | 4 kts | 101° |
| 2026-05-06 01:04 | -41.32851 | 174.80901 | 31 ft | 4 kts | 128° |
| 2026-05-06 01:04 | -41.32831 | 174.80881 | 32 ft | 4 kts | 169° |
| 2026-05-06 01:05 | -41.32805 | 174.80881 | 33 ft | 4 kts | 192° |
| 2026-05-06 01:05 | -41.32781 | 174.80888 | 31 ft | 1 kts | 182° |
| 2026-05-06 01:05 | -41.32780 | 174.80888 | 31 ft | 0 kts | 182° |
| 2026-05-06 01:07 | -41.32782 | 174.80887 | 31 ft | 2 kts | 182° |
| 2026-05-06 01:08 | -41.32814 | 174.80873 | 32 ft | 6 kts | 214° |
| 2026-05-06 01:08 | -41.32856 | 174.80820 | 33 ft | 10 kts | 210° |
| 2026-05-06 01:08 | -41.32940 | 174.80800 | 33 ft | 14 kts | 185° |
| 2026-05-06 01:08 | -41.33054 | 174.80791 | 33 ft | 19 kts | 184° |
| 2026-05-06 01:09 | -41.33159 | 174.80788 | 33 ft | 10 kts | 181° |
| 2026-05-06 01:09 | -41.33245 | 174.80784 | 33 ft | 15 kts | 182° |
| 2026-05-06 01:09 | -41.33362 | 174.80775 | 33 ft | 19 kts | 182° |
| 2026-05-06 01:09 | -41.33470 | 174.80769 | 33 ft | 16 kts | 182° |
| 2026-05-06 01:10 | -41.33552 | 174.80725 | 33 ft | 11 kts | 224° |
| 2026-05-06 01:10 | -41.33575 | 174.80667 | 33 ft | 8 kts | 264° |
| 2026-05-06 01:10 | -41.33551 | 174.80638 | 33 ft | 5 kts | 338° |
| 2026-05-06 01:10 | -41.33530 | 174.80634 | 33 ft | 4 kts | 1° |
| 2026-05-06 01:11 | -41.33529 | 174.80634 | 32 ft | 0 kts | 3° |
| 2026-05-06 01:11 | -41.33497 | 174.80637 | 33 ft | 33 kts | 3° |
| 2026-05-06 01:12 | -41.32858 | 174.80683 | 56 ft | 144 kts | 2° |
| 2026-05-06 01:12 | -41.32143 | 174.80736 | 670 ft | 160 kts | 3° |
| 2026-05-06 01:12 | -41.30968 | 174.80812 | 1898 ft | 187 kts | 356° |
| 2026-05-06 01:12 | -41.29652 | 174.80887 | 2910 ft | 188 kts | 355° |
| 2026-05-06 01:13 | -41.28350 | 174.80989 | 4036 ft | 186 kts | 355° |
| 2026-05-06 01:13 | -41.27031 | 174.81065 | 4893 ft | 193 kts | 351° |
| 2026-05-06 01:13 | -41.25682 | 174.80859 | 5699 ft | 197 kts | 340° |
| 2026-05-06 01:13 | -41.24333 | 174.80347 | 6511 ft | 206 kts | 336° |
| 2026-05-06 01:14 | -41.21552 | 174.79092 | 8211 ft | 228 kts | 338° |
| 2026-05-06 01:14 | -41.19965 | 174.78437 | 8795 ft | 253 kts | 340° |
| 2026-05-06 01:14 | -41.18226 | 174.77795 | 9737 ft | 264 kts | 342° |
| 2026-05-06 01:15 | -41.16397 | 174.77286 | 10648 ft | 278 kts | 351° |
| 2026-05-06 01:15 | -41.14365 | 174.77251 | 11207 ft | 304 kts | 360° |
| 2026-05-06 01:15 | -41.12200 | 174.77445 | 12001 ft | 317 kts | 0° |
| 2026-05-06 01:15 | -41.09979 | 174.77664 | 12974 ft | 324 kts | 1° |
| 2026-05-06 01:16 | -41.07718 | 174.77879 | 14046 ft | 328 kts | 1° |
| 2026-05-06 01:16 | -41.05424 | 174.78084 | 14986 ft | 333 kts | 1° |
| 2026-05-06 01:16 | -41.03097 | 174.78291 | 15905 ft | 336 kts | 1° |
| 2026-05-06 01:16 | -41.00742 | 174.78496 | 16831 ft | 341 kts | 1° |
| 2026-05-06 01:17 | -40.98352 | 174.78697 | 17729 ft | 346 kts | 1° |
| 2026-05-06 01:17 | -40.95932 | 174.78903 | 18703 ft | 349 kts | 1° |
| 2026-05-06 01:17 | -40.93487 | 174.79111 | 19469 ft | 357 kts | 1° |
| 2026-05-06 01:17 | -40.90978 | 174.79323 | 20152 ft | 366 kts | 1° |
| 2026-05-06 01:18 | -40.88406 | 174.79541 | 20873 ft | 374 kts | 1° |
| 2026-05-06 01:18 | -40.85780 | 174.79763 | 21602 ft | 382 kts | 1° |
| 2026-05-06 01:18 | -40.83135 | 174.79987 | 22291 ft | 390 kts | 1° |
| 2026-05-06 01:18 | -40.80398 | 174.80218 | 22986 ft | 398 kts | 1° |
| 2026-05-06 01:19 | -40.77606 | 174.80454 | 23673 ft | 406 kts | 1° |
| 2026-05-06 01:19 | -40.74755 | 174.80695 | 24273 ft | 414 kts | 1° |
| 2026-05-06 01:19 | -40.71859 | 174.80941 | 24895 ft | 420 kts | 1° |
| 2026-05-06 01:19 | -40.68924 | 174.81189 | 25530 ft | 425 kts | 1° |
| 2026-05-06 01:20 | -40.65950 | 174.81441 | 26148 ft | 431 kts | 1° |
| 2026-05-06 01:20 | -40.62939 | 174.81614 | 26759 ft | 435 kts | 358° |
| 2026-05-06 01:20 | -40.59893 | 174.81618 | 27366 ft | 440 kts | 356° |
| 2026-05-06 01:20 | -40.56811 | 174.81547 | 27974 ft | 445 kts | 356° |
| 2026-05-06 01:21 | -40.53690 | 174.81461 | 28576 ft | 451 kts | 356° |
| 2026-05-06 01:21 | -40.50534 | 174.81389 | 29161 ft | 456 kts | 356° |
| 2026-05-06 01:21 | -40.47340 | 174.81338 | 29730 ft | 461 kts | 356° |
| 2026-05-06 01:21 | -40.44108 | 174.81305 | 30288 ft | 467 kts | 356° |
| 2026-05-06 01:22 | -40.40840 | 174.81285 | 30780 ft | 471 kts | 356° |
| 2026-05-06 01:22 | -40.37549 | 174.81271 | 31297 ft | 474 kts | 357° |
| 2026-05-06 01:22 | -40.34244 | 174.81261 | 31812 ft | 477 kts | 357° |
| 2026-05-06 01:22 | -40.30916 | 174.81251 | 32306 ft | 480 kts | 357° |
| 2026-05-06 01:23 | -40.27610 | 174.81239 | 32781 ft | 482 kts | 357° |
| 2026-05-06 01:23 | -40.24241 | 174.81226 | 33262 ft | 485 kts | 356° |
| 2026-05-06 01:23 | -40.20852 | 174.81213 | 33733 ft | 488 kts | 356° |
| 2026-05-06 01:23 | -40.17447 | 174.81198 | 34190 ft | 491 kts | 356° |
| 2026-05-06 01:24 | -40.14020 | 174.81184 | 34703 ft | 490 kts | 356° |
| 2026-05-06 01:24 | -40.10611 | 174.81171 | 35313 ft | 487 kts | 357° |
| 2026-05-06 01:24 | -40.07243 | 174.81160 | 35956 ft | 482 kts | 357° |
| 2026-05-06 01:24 | -40.03901 | 174.81147 | 36570 ft | 478 kts | 357° |
| 2026-05-06 01:25 | -40.00578 | 174.81134 | 37130 ft | 475 kts | 357° |
| 2026-05-06 01:25 | -39.97279 | 174.81120 | 37670 ft | 473 kts | 357° |
| 2026-05-06 01:25 | -39.93993 | 174.81106 | 38204 ft | 471 kts | 357° |
| 2026-05-06 01:25 | -39.90731 | 174.81091 | 38717 ft | 468 kts | 357° |
| 2026-05-06 01:26 | -39.87478 | 174.81077 | 39153 ft | 467 kts | 357° |
| 2026-05-06 01:26 | -39.84270 | 174.81063 | 39476 ft | 466 kts | 357° |
| 2026-05-06 01:26 | -39.81025 | 174.81048 | 39786 ft | 466 kts | 357° |
| 2026-05-06 01:26 | -39.77776 | 174.81033 | 40085 ft | 466 kts | 357° |
| 2026-05-06 01:27 | -39.74531 | 174.81019 | 40389 ft | 466 kts | 357° |
| 2026-05-06 01:27 | -39.71285 | 174.81005 | 40702 ft | 466 kts | 357° |
| 2026-05-06 01:27 | -39.68039 | 174.80991 | 40975 ft | 466 kts | 357° |
| 2026-05-06 01:27 | -39.64796 | 174.80978 | 41239 ft | 466 kts | 357° |
| 2026-05-06 01:28 | -39.61539 | 174.80963 | 41364 ft | 470 kts | 357° |
| 2026-05-06 01:28 | -39.58243 | 174.80947 | 41371 ft | 476 kts | 357° |
| 2026-05-06 01:28 | -39.51526 | 174.80915 | 41375 ft | 488 kts | 357° |
| 2026-05-06 01:29 | -39.44697 | 174.80886 | 41371 ft | 499 kts | 357° |
| 2026-05-06 01:29 | -39.37702 | 174.80858 | 41375 ft | 504 kts | 357° |
| 2026-05-06 01:30 | -39.30695 | 174.80833 | 41380 ft | 504 kts | 357° |
| 2026-05-06 01:30 | -39.23681 | 174.80806 | 41385 ft | 503 kts | 357° |
| 2026-05-06 01:31 | -39.16669 | 174.80785 | 41386 ft | 504 kts | 357° |
| 2026-05-06 01:31 | -39.09659 | 174.80761 | 41387 ft | 504 kts | 357° |
| 2026-05-06 01:32 | -39.02649 | 174.80733 | 41387 ft | 504 kts | 357° |
| 2026-05-06 01:32 | -38.95641 | 174.80708 | 41388 ft | 504 kts | 357° |
| 2026-05-06 01:33 | -38.88623 | 174.80684 | 41391 ft | 504 kts | 357° |
| 2026-05-06 01:33 | -38.81641 | 174.80662 | 41390 ft | 504 kts | 357° |
| 2026-05-06 01:34 | -38.74614 | 174.80655 | 41389 ft | 505 kts | 357° |
| 2026-05-06 01:34 | -38.67572 | 174.80656 | 41390 ft | 505 kts | 357° |
| 2026-05-06 01:35 | -38.60541 | 174.80656 | 41389 ft | 505 kts | 357° |
| 2026-05-06 01:35 | -38.53512 | 174.80654 | 41379 ft | 505 kts | 357° |
| 2026-05-06 01:36 | -38.46472 | 174.80651 | 41391 ft | 506 kts | 357° |
| 2026-05-06 01:36 | -38.39426 | 174.80648 | 41399 ft | 506 kts | 357° |
| 2026-05-06 01:37 | -38.32418 | 174.80647 | 41385 ft | 506 kts | 357° |
| 2026-05-06 01:37 | -38.25374 | 174.80645 | 41390 ft | 506 kts | 357° |
| 2026-05-06 01:38 | -38.18317 | 174.80643 | 41383 ft | 506 kts | 357° |
| 2026-05-06 01:38 | -38.11274 | 174.80640 | 41384 ft | 506 kts | 357° |
| 2026-05-06 01:39 | -38.04222 | 174.80637 | 41386 ft | 506 kts | 357° |
| 2026-05-06 01:39 | -37.97171 | 174.80635 | 41376 ft | 507 kts | 357° |
| 2026-05-06 01:40 | -37.90116 | 174.80634 | 41380 ft | 507 kts | 357° |
| 2026-05-06 01:40 | -37.83064 | 174.80659 | 41376 ft | 507 kts | 358° |
| 2026-05-06 01:41 | -37.76042 | 174.80755 | 41384 ft | 508 kts | 358° |
| 2026-05-06 01:41 | -37.68954 | 174.80860 | 41393 ft | 508 kts | 358° |
| 2026-05-06 01:42 | -37.61983 | 174.80956 | 41378 ft | 508 kts | 358° |
| 2026-05-06 01:42 | -37.54904 | 174.81052 | 41377 ft | 508 kts | 358° |
| 2026-05-06 01:43 | -37.47839 | 174.81110 | 41374 ft | 508 kts | 358° |
| 2026-05-06 01:43 | -37.40809 | 174.81157 | 41375 ft | 508 kts | 358° |
| 2026-05-06 01:44 | -37.33737 | 174.81212 | 41373 ft | 508 kts | 358° |
| 2026-05-06 01:44 | -37.26662 | 174.81273 | 41573 ft | 507 kts | 358° |
| 2026-05-06 01:45 | -37.23138 | 174.81304 | 41818 ft | 505 kts | 358° |
| 2026-05-06 01:45 | -37.19626 | 174.81336 | 42069 ft | 504 kts | 358° |
| 2026-05-06 01:45 | -37.16120 | 174.81367 | 42323 ft | 503 kts | 358° |
| 2026-05-06 01:45 | -37.12617 | 174.81399 | 42580 ft | 502 kts | 358° |
| 2026-05-06 01:46 | -37.09133 | 174.81418 | 42831 ft | 500 kts | 357° |
| 2026-05-06 01:46 | -37.05655 | 174.81413 | 43095 ft | 499 kts | 357° |
| 2026-05-06 01:46 | -37.02186 | 174.81411 | 43332 ft | 499 kts | 358° |
| 2026-05-06 01:46 | -36.98711 | 174.81710 | 43382 ft | 504 kts | 3° |
| 2026-05-06 01:47 | -36.91693 | 174.82713 | 43375 ft | 510 kts | 4° |
| 2026-05-06 01:47 | -36.84696 | 174.83853 | 43374 ft | 510 kts | 5° |
| 2026-05-06 01:48 | -36.77646 | 174.85009 | 43379 ft | 511 kts | 5° |
| 2026-05-06 01:48 | -36.70596 | 174.86145 | 43381 ft | 511 kts | 5° |
| 2026-05-06 01:49 | -36.63540 | 174.87270 | 43370 ft | 511 kts | 5° |
| 2026-05-06 01:49 | -36.56486 | 174.88390 | 43381 ft | 511 kts | 4° |
| 2026-05-06 01:50 | -36.49427 | 174.89509 | 43382 ft | 511 kts | 5° |
| 2026-05-06 01:50 | -36.42362 | 174.90628 | 43377 ft | 511 kts | 4° |
| 2026-05-06 01:51 | -36.35349 | 174.91737 | 43376 ft | 512 kts | 4° |
| 2026-05-06 01:51 | -36.28287 | 174.92852 | 43376 ft | 512 kts | 4° |
| 2026-05-06 01:52 | -36.21215 | 174.93967 | 43376 ft | 512 kts | 4° |
| 2026-05-06 01:52 | -36.14140 | 174.95079 | 43369 ft | 512 kts | 5° |
| 2026-05-06 01:53 | -36.07065 | 174.96190 | 43374 ft | 513 kts | 4° |
| 2026-05-06 01:53 | -35.99990 | 174.97299 | 43373 ft | 513 kts | 4° |
| 2026-05-06 01:54 | -35.92900 | 174.98408 | 43374 ft | 513 kts | 4° |
| 2026-05-06 01:54 | -35.85867 | 174.99506 | 43373 ft | 513 kts | 4° |
| 2026-05-06 01:55 | -35.78785 | 175.00610 | 43373 ft | 513 kts | 4° |
| 2026-05-06 01:55 | -35.71698 | 175.01713 | 43374 ft | 513 kts | 4° |
| 2026-05-06 01:56 | -35.64605 | 175.02814 | 43362 ft | 513 kts | 4° |
| 2026-05-06 01:56 | -35.57519 | 175.03913 | 43374 ft | 513 kts | 4° |
| 2026-05-06 01:57 | -35.50426 | 175.05011 | 43371 ft | 513 kts | 5° |
| 2026-05-06 01:57 | -35.43339 | 175.06106 | 43368 ft | 513 kts | 5° |
| 2026-05-06 01:58 | -35.36299 | 175.07191 | 43367 ft | 513 kts | 5° |
| 2026-05-06 01:58 | -35.29197 | 175.08284 | 43365 ft | 514 kts | 5° |
| 2026-05-06 01:59 | -35.22093 | 175.09375 | 43360 ft | 514 kts | 5° |
| 2026-05-06 01:59 | -35.14995 | 175.10464 | 43363 ft | 514 kts | 5° |
| 2026-05-06 02:00 | -35.07892 | 175.11552 | 43360 ft | 514 kts | 5° |
| 2026-05-06 02:00 | -35.00836 | 175.12630 | 43364 ft | 515 kts | 5° |
| 2026-05-06 02:01 | -34.93730 | 175.13715 | 43361 ft | 515 kts | 5° |
| 2026-05-06 02:01 | -34.86619 | 175.14798 | 43358 ft | 515 kts | 5° |
| 2026-05-06 02:02 | -34.79512 | 175.15878 | 43362 ft | 515 kts | 5° |
| 2026-05-06 02:02 | -34.72388 | 175.16960 | 43357 ft | 515 kts | 5° |
| 2026-05-06 02:03 | -34.65260 | 175.18040 | 43357 ft | 515 kts | 5° |
| 2026-05-06 02:03 | -34.59343 | 175.18935 | 43353 ft | 516 kts | 5° |
| 2026-05-06 02:04 | -34.51022 | 175.20191 | 43351 ft | 516 kts | 5° |
| 2026-05-06 02:04 | -34.45098 | 175.21085 | 43351 ft | 516 kts | 5° |
| 2026-05-06 02:05 | -34.37975 | 175.22157 | 43329 ft | 516 kts | 5° |
| 2026-05-06 02:05 | -34.30838 | 175.23229 | 43347 ft | 516 kts | 5° |
| 2026-05-06 02:06 | -34.23700 | 175.24300 | 43346 ft | 517 kts | 5° |
| 2026-05-06 02:06 | -34.16567 | 175.25368 | 43346 ft | 517 kts | 4° |
| 2026-05-06 02:07 | -34.09475 | 175.26428 | 43343 ft | 517 kts | 5° |
| 2026-05-06 02:07 | -34.02331 | 175.27495 | 43343 ft | 517 kts | 4° |
| 2026-05-06 02:08 | -33.95180 | 175.28560 | 43344 ft | 517 kts | 5° |
| 2026-05-06 02:08 | -33.88035 | 175.29623 | 43341 ft | 517 kts | 4° |
| 2026-05-06 02:09 | -33.80883 | 175.30685 | 43337 ft | 518 kts | 4° |
| 2026-05-06 02:09 | -33.73724 | 175.31747 | 43343 ft | 518 kts | 4° |
| 2026-05-06 02:10 | -33.66560 | 175.32812 | 43334 ft | 518 kts | 5° |
| 2026-05-06 02:10 | -33.59408 | 175.33887 | 43323 ft | 518 kts | 5° |
| 2026-05-06 02:11 | -33.52288 | 175.34959 | 43330 ft | 519 kts | 5° |
| 2026-05-06 02:11 | -33.45127 | 175.36033 | 43335 ft | 519 kts | 5° |
| 2026-05-06 02:12 | -33.37957 | 175.37107 | 43328 ft | 519 kts | 5° |
| 2026-05-06 02:12 | -33.30793 | 175.38178 | 43328 ft | 518 kts | 5° |
| 2026-05-06 02:13 | -33.23634 | 175.39246 | 43326 ft | 519 kts | 4° |
| 2026-05-06 02:13 | -33.16509 | 175.40307 | 43321 ft | 518 kts | 4° |
| 2026-05-06 02:14 | -33.09348 | 175.41372 | 43320 ft | 519 kts | 4° |
| 2026-05-06 02:14 | -33.02184 | 175.42435 | 43320 ft | 519 kts | 4° |
| 2026-05-06 02:15 | -32.95021 | 175.43498 | 43323 ft | 519 kts | 5° |
| 2026-05-06 02:15 | -32.87857 | 175.44558 | 43321 ft | 519 kts | 5° |
| 2026-05-06 02:16 | -32.80689 | 175.45617 | 43302 ft | 519 kts | 5° |
| 2026-05-06 02:16 | -32.73522 | 175.46674 | 43314 ft | 519 kts | 5° |
| 2026-05-06 02:17 | -32.66346 | 175.47731 | 43317 ft | 519 kts | 5° |
| 2026-05-06 02:17 | -32.59169 | 175.48786 | 43308 ft | 519 kts | 5° |
| 2026-05-06 02:18 | -32.51989 | 175.49840 | 43298 ft | 520 kts | 4° |
| 2026-05-06 02:18 | -32.44846 | 175.50887 | 43304 ft | 520 kts | 4° |
| 2026-05-06 02:19 | -32.37657 | 175.51939 | 43303 ft | 520 kts | 4° |
| 2026-05-06 02:19 | -32.30477 | 175.52988 | 43303 ft | 520 kts | 4° |
| 2026-05-06 02:20 | -32.19685 | 175.54561 | 43296 ft | 521 kts | 4° |
| 2026-05-06 02:21 | -32.12493 | 175.55608 | 43295 ft | 521 kts | 4° |
| 2026-05-06 02:21 | -32.05297 | 175.56653 | 43292 ft | 521 kts | 4° |
| 2026-05-06 02:22 | -31.98091 | 175.57699 | 43282 ft | 521 kts | 4° |
| 2026-05-06 02:22 | -31.90887 | 175.58742 | 43296 ft | 522 kts | 4° |
| 2026-05-06 02:23 | -31.83676 | 175.59784 | 43294 ft | 522 kts | 4° |
| 2026-05-06 02:23 | -31.76472 | 175.60824 | 43285 ft | 522 kts | 4° |
| 2026-05-06 02:24 | -31.69306 | 175.61857 | 43281 ft | 522 kts | 4° |
| 2026-05-06 02:24 | -31.62097 | 175.62895 | 43274 ft | 522 kts | 4° |
| 2026-05-06 02:25 | -31.54879 | 175.63932 | 43283 ft | 522 kts | 4° |
| 2026-05-06 02:25 | -31.47655 | 175.64968 | 43284 ft | 523 kts | 4° |
| 2026-05-06 02:26 | -31.40436 | 175.66002 | 43274 ft | 523 kts | 4° |
| 2026-05-06 02:26 | -31.33194 | 175.67038 | 43272 ft | 524 kts | 4° |
| 2026-05-06 02:27 | -31.25950 | 175.68072 | 43273 ft | 524 kts | 4° |
| 2026-05-06 02:27 | -31.18710 | 175.69105 | 43269 ft | 524 kts | 4° |
| 2026-05-06 02:28 | -31.11463 | 175.70137 | 43266 ft | 525 kts | 4° |
| 2026-05-06 02:28 | -31.04260 | 175.71160 | 43268 ft | 525 kts | 4° |
| 2026-05-06 02:29 | -30.96999 | 175.72191 | 43266 ft | 525 kts | 4° |
| 2026-05-06 02:29 | -30.89741 | 175.73221 | 43267 ft | 525 kts | 4° |
| 2026-05-06 02:30 | -30.82480 | 175.74248 | 43265 ft | 526 kts | 4° |
| 2026-05-06 02:30 | -30.75190 | 175.75271 | 43265 ft | 527 kts | 4° |
| 2026-05-06 02:31 | -30.67956 | 175.76287 | 43265 ft | 527 kts | 4° |
| 2026-05-06 02:31 | -30.60673 | 175.77309 | 43259 ft | 527 kts | 4° |
| 2026-05-06 02:32 | -30.53392 | 175.78330 | 43256 ft | 527 kts | 4° |
| 2026-05-06 02:32 | -30.46108 | 175.79350 | 43259 ft | 527 kts | 4° |
| 2026-05-06 02:33 | -30.38830 | 175.80367 | 43249 ft | 527 kts | 4° |
| 2026-05-06 02:33 | -30.36424 | 175.80703 | 43255 ft | 527 kts | 4° |
| 2026-05-06 02:34 | -30.24324 | 175.82391 | 43247 ft | 526 kts | 4° |
| 2026-05-06 02:34 | -30.17061 | 175.83401 | 43243 ft | 526 kts | 4° |
| 2026-05-06 02:35 | -30.09782 | 175.84411 | 43239 ft | 526 kts | 4° |
| 2026-05-06 02:35 | -30.02512 | 175.85420 | 43236 ft | 526 kts | 4° |
| 2026-05-06 02:36 | -29.95227 | 175.86428 | 43239 ft | 528 kts | 4° |
| 2026-05-06 02:36 | -29.87922 | 175.87439 | 43237 ft | 528 kts | 4° |
| 2026-05-06 02:37 | -29.80628 | 175.88446 | 43233 ft | 528 kts | 4° |
| 2026-05-06 02:37 | -29.73325 | 175.89454 | 43229 ft | 529 kts | 3° |
| 2026-05-06 02:38 | -29.66014 | 175.90460 | 43230 ft | 530 kts | 3° |
| 2026-05-06 02:38 | -29.58727 | 175.91462 | 43227 ft | 530 kts | 3° |
| 2026-05-06 02:39 | -29.51400 | 175.92468 | 43223 ft | 530 kts | 4° |
| 2026-05-06 02:39 | -29.44068 | 175.93474 | 43220 ft | 531 kts | 3° |
| 2026-05-06 02:40 | -29.36720 | 175.94479 | 43222 ft | 532 kts | 3° |
| 2026-05-06 02:40 | -29.29373 | 175.95484 | 43216 ft | 532 kts | 3° |
| 2026-05-06 02:41 | -29.22019 | 175.96488 | 43216 ft | 532 kts | 3° |
| 2026-05-06 02:41 | -29.14710 | 175.97484 | 43215 ft | 533 kts | 3° |
| 2026-05-06 02:42 | -29.07323 | 175.98489 | 43217 ft | 534 kts | 3° |
| 2026-05-06 02:42 | -28.99930 | 175.99494 | 43212 ft | 535 kts | 3° |
| 2026-05-06 02:43 | -28.92536 | 176.00498 | 43206 ft | 535 kts | 3° |
| 2026-05-06 02:43 | -28.85137 | 176.01501 | 43206 ft | 536 kts | 3° |
| 2026-05-06 02:44 | -28.77727 | 176.02504 | 43204 ft | 536 kts | 3° |
| 2026-05-06 02:44 | -28.70363 | 176.03499 | 43201 ft | 537 kts | 3° |
| 2026-05-06 02:45 | -28.62940 | 176.04501 | 43201 ft | 537 kts | 3° |
| 2026-05-06 02:45 | -28.55508 | 176.05502 | 43195 ft | 537 kts | 3° |
| 2026-05-06 02:46 | -28.48075 | 176.06502 | 43195 ft | 538 kts | 3° |
| 2026-05-06 02:46 | -28.40639 | 176.07502 | 43194 ft | 538 kts | 3° |
| 2026-05-06 02:47 | -28.33201 | 176.08500 | 43186 ft | 538 kts | 3° |
| 2026-05-06 02:47 | -28.25803 | 176.09491 | 43187 ft | 539 kts | 2° |
| 2026-05-06 02:48 | -28.18346 | 176.10489 | 43184 ft | 539 kts | 2° |
| 2026-05-06 02:48 | -28.10889 | 176.11485 | 43185 ft | 539 kts | 2° |
| 2026-05-06 02:49 | -28.03432 | 176.12481 | 43183 ft | 539 kts | 2° |
| 2026-05-06 02:49 | -27.95974 | 176.13475 | 43181 ft | 540 kts | 2° |
| 2026-05-06 02:50 | -27.88502 | 176.14469 | 43179 ft | 540 kts | 2° |
| 2026-05-06 02:50 | -27.81078 | 176.15456 | 43189 ft | 540 kts | 2° |
| 2026-05-06 02:51 | -27.73602 | 176.16454 | 43163 ft | 540 kts | 2° |
| 2026-05-06 02:51 | -27.66129 | 176.17442 | 43178 ft | 540 kts | 2° |
| 2026-05-06 02:52 | -27.59918 | 176.18261 | 43161 ft | 540 kts | 2° |
| 2026-05-06 02:52 | -27.52443 | 176.19248 | 43163 ft | 540 kts | 2° |
| 2026-05-06 02:53 | -27.44983 | 176.20234 | 43161 ft | 539 kts | 2° |
| 2026-05-06 02:53 | -27.37526 | 176.21217 | 43156 ft | 539 kts | 2° |
| 2026-05-06 02:54 | -27.30113 | 176.22192 | 43153 ft | 539 kts | 2° |
| 2026-05-06 02:54 | -27.22649 | 176.23173 | 43157 ft | 539 kts | 2° |
| 2026-05-06 02:55 | -27.15194 | 176.24151 | 43162 ft | 539 kts | 2° |
| 2026-05-06 02:55 | -27.07737 | 176.25130 | 43153 ft | 540 kts | 2° |
| 2026-05-06 02:56 | -27.00266 | 176.26108 | 43142 ft | 540 kts | 2° |
| 2026-05-06 02:56 | -26.74337 | 176.29494 | 43140 ft | 540 kts | 2° |
| 2026-05-06 02:57 | -26.44623 | 176.33354 | 43129 ft | 540 kts | 1° |
| 2026-05-06 02:57 | -26.14719 | 176.37219 | 43117 ft | 540 kts | 1° |
| 2026-05-06 02:58 | -25.84828 | 176.41062 | 43110 ft | 540 kts | 1° |
| 2026-05-06 02:58 | -25.54958 | 176.44883 | 43097 ft | 539 kts | 0° |
| 2026-05-06 02:59 | -25.25231 | 176.48667 | 43084 ft | 537 kts | 0° |
| 2026-05-06 02:59 | -24.95544 | 176.52435 | 43056 ft | 536 kts | 0° |
| 2026-05-06 03:00 | -24.66159 | 176.56134 | 43073 ft | 534 kts | 0° |
| 2026-05-06 03:00 | -24.36602 | 176.59846 | 43067 ft | 535 kts | 0° |
| 2026-05-06 03:01 | -24.07072 | 176.63538 | 43048 ft | 532 kts | 0° |
| 2026-05-06 03:01 | -23.77707 | 176.67191 | 43044 ft | 530 kts | 360° |
| 2026-05-06 03:02 | -23.48434 | 176.70817 | 43035 ft | 528 kts | 360° |
| 2026-05-06 03:02 | -23.19207 | 176.74420 | 43019 ft | 527 kts | 360° |
| 2026-05-06 03:03 | -22.90058 | 176.77999 | 43012 ft | 526 kts | 360° |
| 2026-05-06 03:03 | -22.61017 | 176.81549 | 43004 ft | 524 kts | 360° |
| 2026-05-06 03:04 | -22.32206 | 176.85055 | 42996 ft | 523 kts | 360° |
| 2026-05-06 03:04 | -22.03289 | 176.88560 | 42978 ft | 522 kts | 0° |